sensor_id;sensor_type;location;lat;lon;timestamp;P1;durP1;ratioP1;P2;durP2;ratioP2
24457;SDS011;12629;50.860;5.714;2023-07-28T12:02:44;754.72;;;698.03;;
24457;SDS011;12629;50.860;5.714;2023-07-28T12:05:12;587.28;;;550.20;;
24457;SDS011;12629;50.860;5.714;2023-07-28T12:07:40;662.55;;;620.00;;
24457;SDS011;12629;50.860;5.714;2023-07-28T12:10:08;733.30;;;673.00;;
24457;SDS011;12629;50.860;5.714;2023-07-28T12:12:39;660.88;;;619.28;;
24457;SDS011;12629;50.860;5.714;2023-07-28T12:18:08;816.67;;;756.08;;
24457;SDS011;12629;50.860;5.714;2023-07-28T12:20:38;248.80;;;233.85;;
24457;SDS011;12629;50.860;5.714;2023-07-28T12:23:07;217.25;;;204.43;;
24457;SDS011;12629;50.860;5.714;2023-07-28T12:25:35;249.95;;;234.85;;
24457;SDS011;12629;50.860;5.714;2023-07-28T12:28:03;156.43;;;148.32;;
24457;SDS011;12629;50.860;5.714;2023-07-28T12:30:31;133.75;;;127.03;;
24457;SDS011;12629;50.860;5.714;2023-07-28T12:32:59;119.38;;;113.13;;
24457;SDS011;12629;50.860;5.714;2023-07-28T12:35:27;316.02;;;298.00;;
24457;SDS011;12629;50.860;5.714;2023-07-28T12:37:57;249.40;;;236.73;;
24457;SDS011;12629;50.860;5.714;2023-07-28T12:40:26;213.93;;;200.98;;
24457;SDS011;12629;50.860;5.714;2023-07-28T12:42:54;190.95;;;180.68;;
24457;SDS011;12629;50.860;5.714;2023-07-28T12:45:22;413.42;;;383.17;;
24457;SDS011;12629;50.860;5.714;2023-07-28T12:47:51;293.13;;;275.33;;
24457;SDS011;12629;50.860;5.714;2023-07-28T12:50:19;180.55;;;169.38;;
24457;SDS011;12629;50.860;5.714;2023-07-28T12:52:48;235.50;;;223.07;;
24457;SDS011;12629;50.860;5.714;2023-07-28T12:55:16;247.27;;;232.70;;
24457;SDS011;12629;50.860;5.714;2023-07-28T12:57:44;223.27;;;211.30;;
24457;SDS011;12629;50.860;5.714;2023-07-28T13:00:13;279.15;;;263.58;;
24457;SDS011;12629;50.860;5.714;2023-07-28T13:02:41;333.02;;;312.23;;
24457;SDS011;12629;50.860;5.714;2023-07-28T13:05:09;84.38;;;80.00;;
24457;SDS011;12629;50.860;5.714;2023-07-28T13:07:38;49.30;;;46.80;;
24457;SDS011;12629;50.860;5.714;2023-07-28T13:10:07;121.25;;;113.75;;
24457;SDS011;12629;50.860;5.714;2023-07-28T13:12:36;97.15;;;91.10;;
24457;SDS011;12629;50.860;5.714;2023-07-28T13:15:05;98.80;;;92.68;;
24457;SDS011;12629;50.860;5.714;2023-07-28T13:17:33;266.25;;;253.18;;
24457;SDS011;12629;50.860;5.714;2023-07-28T13:20:00;457.52;;;429.50;;
24457;SDS011;12629;50.860;5.714;2023-07-28T13:22:28;345.42;;;324.92;;
24457;SDS011;12629;50.860;5.714;2023-07-28T13:24:55;287.23;;;269.27;;
24457;SDS011;12629;50.860;5.714;2023-07-28T13:27:24;173.63;;;164.07;;
24457;SDS011;12629;50.860;5.714;2023-07-28T13:29:51;238.43;;;224.77;;
24457;SDS011;12629;50.860;5.714;2023-07-28T13:32:22;318.05;;;295.05;;
24457;SDS011;12629;50.860;5.714;2023-07-28T13:34:51;205.88;;;194.80;;
24457;SDS011;12629;50.860;5.714;2023-07-28T13:37:19;276.02;;;257.67;;
24457;SDS011;12629;50.860;5.714;2023-07-28T13:39:46;476.42;;;443.95;;
24457;SDS011;12629;50.860;5.714;2023-07-28T13:42:13;668.58;;;611.67;;
24457;SDS011;12629;50.860;5.714;2023-07-28T13:44:42;208.73;;;196.95;;
24457;SDS011;12629;50.860;5.714;2023-07-28T13:47:10;540.83;;;500.10;;
24457;SDS011;12629;50.860;5.714;2023-07-28T13:49:37;350.83;;;327.88;;
24457;SDS011;12629;50.860;5.714;2023-07-28T13:52:05;197.50;;;186.63;;
24457;SDS011;12629;50.860;5.714;2023-07-28T13:54:33;303.85;;;284.60;;
24457;SDS011;12629;50.860;5.714;2023-07-28T13:57:00;217.40;;;205.40;;
24457;SDS011;12629;50.860;5.714;2023-07-28T13:59:28;313.20;;;293.67;;
24457;SDS011;12629;50.860;5.714;2023-07-28T14:01:57;368.70;;;346.00;;
24457;SDS011;12629;50.860;5.714;2023-07-28T14:04:24;219.30;;;207.70;;
24457;SDS011;12629;50.860;5.714;2023-07-28T14:06:51;726.50;;;664.20;;
24457;SDS011;12629;50.860;5.714;2023-07-28T14:09:19;410.17;;;381.73;;
24457;SDS011;12629;50.860;5.714;2023-07-28T14:11:46;207.73;;;196.55;;
24457;SDS011;12629;50.860;5.714;2023-07-28T14:14:13;325.85;;;308.05;;
24457;SDS011;12629;50.860;5.714;2023-07-28T14:16:41;210.80;;;199.52;;
24457;SDS011;12629;50.860;5.714;2023-07-28T14:19:10;491.08;;;460.15;;
24457;SDS011;12629;50.860;5.714;2023-07-28T14:21:37;336.33;;;318.10;;
24457;SDS011;12629;50.860;5.714;2023-07-28T14:24:05;248.65;;;235.52;;
24457;SDS011;12629;50.860;5.714;2023-07-28T14:26:32;454.45;;;425.83;;
24457;SDS011;12629;50.860;5.714;2023-07-28T14:28:59;408.73;;;386.25;;
24457;SDS011;12629;50.860;5.714;2023-07-28T14:31:27;306.23;;;290.00;;
24457;SDS011;12629;50.860;5.714;2023-07-28T14:33:55;450.75;;;424.88;;
24457;SDS011;12629;50.860;5.714;2023-07-28T14:36:24;450.80;;;424.17;;
24457;SDS011;12629;50.860;5.714;2023-07-28T14:38:51;454.15;;;428.98;;
24457;SDS011;12629;50.860;5.714;2023-07-28T14:41:19;443.75;;;418.80;;
24457;SDS011;12629;50.860;5.714;2023-07-28T14:43:46;493.10;;;464.75;;
24457;SDS011;12629;50.860;5.714;2023-07-28T14:46:13;519.63;;;488.80;;
24457;SDS011;12629;50.860;5.714;2023-07-28T14:48:41;455.83;;;430.13;;
24457;SDS011;12629;50.860;5.714;2023-07-28T14:51:08;521.75;;;489.90;;
24457;SDS011;12629;50.860;5.714;2023-07-28T14:53:37;201.00;;;188.82;;
24457;SDS011;12629;50.860;5.714;2023-07-28T14:56:05;5.22;;;4.82;;
24457;SDS011;12629;50.860;5.714;2023-07-28T14:58:33;3.75;;;3.42;;
24457;SDS011;12629;50.860;5.714;2023-07-28T15:01:00;3.95;;;3.38;;
24457;SDS011;12629;50.860;5.714;2023-07-28T15:03:30;6.28;;;5.88;;
24457;SDS011;12629;50.860;5.714;2023-07-28T15:05:57;10.50;;;9.85;;
24457;SDS011;12629;50.860;5.714;2023-07-28T15:08:25;14.85;;;13.90;;
24457;SDS011;12629;50.860;5.714;2023-07-28T15:10:54;6.18;;;5.68;;
24457;SDS011;12629;50.860;5.714;2023-07-28T15:13:22;13.95;;;13.07;;
24457;SDS011;12629;50.860;5.714;2023-07-28T15:15:49;18.05;;;16.90;;
24457;SDS011;12629;50.860;5.714;2023-07-28T15:18:16;54.85;;;51.63;;
24457;SDS011;12629;50.860;5.714;2023-07-28T15:20:44;63.05;;;59.60;;
24457;SDS011;12629;50.860;5.714;2023-07-28T15:23:11;9.65;;;9.05;;
24457;SDS011;12629;50.860;5.714;2023-07-28T15:25:39;35.05;;;33.17;;
24457;SDS011;12629;50.860;5.714;2023-07-28T15:28:10;52.35;;;49.67;;
24457;SDS011;12629;50.860;5.714;2023-07-28T15:30:37;15.48;;;14.57;;
24457;SDS011;12629;50.860;5.714;2023-07-28T15:33:04;43.90;;;41.63;;
24457;SDS011;12629;50.860;5.714;2023-07-28T15:35:33;47.90;;;45.38;;
24457;SDS011;12629;50.860;5.714;2023-07-28T15:38:00;36.60;;;34.58;;
24457;SDS011;12629;50.860;5.714;2023-07-28T15:40:29;120.07;;;113.60;;
24457;SDS011;12629;50.860;5.714;2023-07-28T15:42:56;262.60;;;245.57;;
24457;SDS011;12629;50.860;5.714;2023-07-28T15:45:25;89.18;;;84.38;;
24457;SDS011;12629;50.860;5.714;2023-07-28T15:47:52;86.05;;;81.07;;
24457;SDS011;12629;50.860;5.714;2023-07-28T15:50:19;39.63;;;37.50;;
24457;SDS011;12629;50.860;5.714;2023-07-28T15:52:47;34.58;;;32.72;;
24457;SDS011;12629;50.860;5.714;2023-07-28T15:55:16;349.02;;;326.67;;
24457;SDS011;12629;50.860;5.714;2023-07-28T15:57:43;40.78;;;38.58;;
24457;SDS011;12629;50.860;5.714;2023-07-28T16:00:11;61.60;;;58.47;;
24457;SDS011;12629;50.860;5.714;2023-07-28T16:02:42;134.55;;;127.25;;
24457;SDS011;12629;50.860;5.714;2023-07-28T16:05:12;33.28;;;31.40;;
24457;SDS011;12629;50.860;5.714;2023-07-28T16:07:39;48.15;;;45.58;;
24457;SDS011;12629;50.860;5.714;2023-07-28T16:10:07;28.08;;;26.40;;
24457;SDS011;12629;50.860;5.714;2023-07-28T16:12:36;33.42;;;31.55;;
24457;SDS011;12629;50.860;5.714;2023-07-28T16:15:03;41.45;;;39.28;;
24457;SDS011;12629;50.860;5.714;2023-07-28T16:17:31;76.15;;;71.93;;
24457;SDS011;12629;50.860;5.714;2023-07-28T16:20:00;66.32;;;62.67;;
24457;SDS011;12629;50.860;5.714;2023-07-28T16:22:28;46.05;;;43.65;;
24457;SDS011;12629;50.860;5.714;2023-07-28T16:24:55;44.08;;;41.53;;
24457;SDS011;12629;50.860;5.714;2023-07-28T16:27:22;95.88;;;90.63;;
24457;SDS011;12629;50.860;5.714;2023-07-28T16:29:50;44.40;;;41.97;;
24457;SDS011;12629;50.860;5.714;2023-07-28T16:32:17;126.53;;;119.63;;
24457;SDS011;12629;50.860;5.714;2023-07-28T16:34:45;34.95;;;33.00;;
24457;SDS011;12629;50.860;5.714;2023-07-28T16:37:13;38.40;;;36.40;;
24457;SDS011;12629;50.860;5.714;2023-07-28T16:39:41;29.92;;;28.30;;
24457;SDS011;12629;50.860;5.714;2023-07-28T16:42:08;511.55;;;476.52;;
24457;SDS011;12629;50.860;5.714;2023-07-28T16:44:35;44.08;;;41.45;;
24457;SDS011;12629;50.860;5.714;2023-07-28T16:47:04;178.10;;;168.48;;
24457;SDS011;12629;50.860;5.714;2023-07-28T16:49:32;179.10;;;170.07;;
24457;SDS011;12629;50.860;5.714;2023-07-28T16:51:59;208.73;;;197.95;;
24457;SDS011;12629;50.860;5.714;2023-07-28T16:54:28;243.35;;;230.90;;
24457;SDS011;12629;50.860;5.714;2023-07-28T16:56:56;166.73;;;158.30;;
24457;SDS011;12629;50.860;5.714;2023-07-28T16:59:24;152.48;;;144.80;;
24457;SDS011;12629;50.860;5.714;2023-07-28T17:01:51;185.45;;;175.90;;
24457;SDS011;12629;50.860;5.714;2023-07-28T17:04:19;196.38;;;186.27;;
24457;SDS011;12629;50.860;5.714;2023-07-28T17:06:46;167.30;;;158.93;;
24457;SDS011;12629;50.860;5.714;2023-07-28T17:09:13;258.85;;;245.32;;
24457;SDS011;12629;50.860;5.714;2023-07-28T17:11:42;178.82;;;169.93;;
24457;SDS011;12629;50.860;5.714;2023-07-28T17:14:09;145.57;;;138.27;;
24457;SDS011;12629;50.860;5.714;2023-07-28T17:16:36;146.10;;;138.75;;
24457;SDS011;12629;50.860;5.714;2023-07-28T17:19:04;171.10;;;162.30;;
24457;SDS011;12629;50.860;5.714;2023-07-28T17:21:31;111.30;;;105.55;;
24457;SDS011;12629;50.860;5.714;2023-07-28T17:23:58;107.25;;;101.82;;
24457;SDS011;12629;50.860;5.714;2023-07-28T17:26:26;246.63;;;233.55;;
24457;SDS011;12629;50.860;5.714;2023-07-28T17:28:54;99.28;;;94.30;;
24457;SDS011;12629;50.860;5.714;2023-07-28T17:31:22;50.50;;;47.90;;
24457;SDS011;12629;50.860;5.714;2023-07-28T17:33:49;59.40;;;56.10;;
24457;SDS011;12629;50.860;5.714;2023-07-28T17:36:16;67.43;;;63.90;;
24457;SDS011;12629;50.860;5.714;2023-07-28T17:38:44;46.30;;;43.65;;
24457;SDS011;12629;50.860;5.714;2023-07-28T17:41:11;44.05;;;41.25;;
24457;SDS011;12629;50.860;5.714;2023-07-28T17:43:39;46.33;;;43.92;;
24457;SDS011;12629;50.860;5.714;2023-07-28T17:46:07;54.53;;;51.75;;
24457;SDS011;12629;50.860;5.714;2023-07-28T17:48:35;50.55;;;47.85;;
24457;SDS011;12629;50.860;5.714;2023-07-28T17:51:02;41.65;;;39.47;;
24457;SDS011;12629;50.860;5.714;2023-07-28T17:53:30;36.20;;;34.30;;
24457;SDS011;12629;50.860;5.714;2023-07-28T17:55:57;37.50;;;35.50;;
24457;SDS011;12629;50.860;5.714;2023-07-28T17:58:25;33.33;;;31.52;;
24457;SDS011;12629;50.860;5.714;2023-07-28T18:00:52;40.90;;;38.72;;
24457;SDS011;12629;50.860;5.714;2023-07-28T18:03:21;42.42;;;40.13;;
24457;SDS011;12629;50.860;5.714;2023-07-28T18:05:50;44.38;;;42.03;;
24457;SDS011;12629;50.860;5.714;2023-07-28T18:08:18;42.08;;;39.90;;
24457;SDS011;12629;50.860;5.714;2023-07-28T18:10:45;41.72;;;39.53;;
24457;SDS011;12629;50.860;5.714;2023-07-28T18:13:13;37.05;;;35.10;;
24457;SDS011;12629;50.860;5.714;2023-07-28T18:15:41;46.78;;;44.28;;
24457;SDS011;12629;50.860;5.714;2023-07-28T18:18:08;75.68;;;71.63;;
24457;SDS011;12629;50.860;5.714;2023-07-28T18:20:37;861.67;;;768.70;;
24457;SDS011;12629;50.860;5.714;2023-07-28T18:23:04;248.85;;;234.60;;
24457;SDS011;12629;50.860;5.714;2023-07-28T18:25:32;348.05;;;325.70;;
24457;SDS011;12629;50.860;5.714;2023-07-28T18:27:59;362.58;;;330.90;;
24457;SDS011;12629;50.860;5.714;2023-07-28T18:30:27;180.05;;;169.85;;
24457;SDS011;12629;50.860;5.714;2023-07-28T18:32:55;232.48;;;219.85;;
24457;SDS011;12629;50.860;5.714;2023-07-28T18:35:22;248.10;;;234.65;;
24457;SDS011;12629;50.860;5.714;2023-07-28T18:37:51;261.38;;;247.45;;
24457;SDS011;12629;50.860;5.714;2023-07-28T18:40:18;235.45;;;222.93;;
24457;SDS011;12629;50.860;5.714;2023-07-28T18:42:46;229.32;;;216.80;;
24457;SDS011;12629;50.860;5.714;2023-07-28T18:45:13;223.43;;;211.77;;
24457;SDS011;12629;50.860;5.714;2023-07-28T18:47:41;204.43;;;193.65;;
24457;SDS011;12629;50.860;5.714;2023-07-28T18:50:08;244.90;;;231.45;;
24457;SDS011;12629;50.860;5.714;2023-07-28T18:52:36;191.10;;;180.55;;
24457;SDS011;12629;50.860;5.714;2023-07-28T18:55:06;223.32;;;211.57;;
24457;SDS011;12629;50.860;5.714;2023-07-28T18:57:34;209.50;;;198.25;;
24457;SDS011;12629;50.860;5.714;2023-07-28T19:00:02;346.25;;;322.17;;
24457;SDS011;12629;50.860;5.714;2023-07-28T19:02:32;192.32;;;181.70;;
24457;SDS011;12629;50.860;5.714;2023-07-28T19:04:59;218.52;;;207.18;;
24457;SDS011;12629;50.860;5.714;2023-07-28T19:07:27;298.33;;;280.38;;
24457;SDS011;12629;50.860;5.714;2023-07-28T19:09:54;254.13;;;240.40;;
24457;SDS011;12629;50.860;5.714;2023-07-28T19:12:23;191.57;;;181.20;;
24457;SDS011;12629;50.860;5.714;2023-07-28T19:14:50;223.57;;;211.38;;
24457;SDS011;12629;50.860;5.714;2023-07-28T19:17:18;200.63;;;189.93;;
24457;SDS011;12629;50.860;5.714;2023-07-28T19:19:46;352.15;;;328.83;;
24457;SDS011;12629;50.860;5.714;2023-07-28T19:22:13;238.07;;;224.98;;
24457;SDS011;12629;50.860;5.714;2023-07-28T19:24:41;203.90;;;192.77;;
24457;SDS011;12629;50.860;5.714;2023-07-28T19:27:08;195.95;;;185.25;;
24457;SDS011;12629;50.860;5.714;2023-07-28T19:29:37;180.63;;;170.80;;
24457;SDS011;12629;50.860;5.714;2023-07-28T19:32:05;172.38;;;162.70;;
24457;SDS011;12629;50.860;5.714;2023-07-28T19:34:32;226.70;;;214.43;;
24457;SDS011;12629;50.860;5.714;2023-07-28T19:37:00;222.98;;;210.90;;
24457;SDS011;12629;50.860;5.714;2023-07-28T19:39:27;189.55;;;179.15;;
24457;SDS011;12629;50.860;5.714;2023-07-28T19:41:55;186.60;;;176.45;;
24457;SDS011;12629;50.860;5.714;2023-07-28T19:44:22;200.65;;;189.88;;
24457;SDS011;12629;50.860;5.714;2023-07-28T19:46:51;177.32;;;167.75;;
24457;SDS011;12629;50.860;5.714;2023-07-28T19:49:18;210.35;;;198.95;;
24457;SDS011;12629;50.860;5.714;2023-07-28T19:51:46;191.77;;;181.25;;
24457;SDS011;12629;50.860;5.714;2023-07-28T19:54:13;215.55;;;203.77;;
24457;SDS011;12629;50.860;5.714;2023-07-28T19:56:40;184.68;;;174.52;;
24457;SDS011;12629;50.860;5.714;2023-07-28T19:59:07;236.10;;;221.45;;
24457;SDS011;12629;50.860;5.714;2023-07-28T20:01:37;180.45;;;170.38;;
24457;SDS011;12629;50.860;5.714;2023-07-28T20:04:06;201.05;;;190.25;;
24457;SDS011;12629;50.860;5.714;2023-07-28T20:06:34;176.90;;;167.48;;
24457;SDS011;12629;50.860;5.714;2023-07-28T20:09:01;193.25;;;182.73;;
24457;SDS011;12629;50.860;5.714;2023-07-28T20:11:29;237.65;;;224.65;;
24457;SDS011;12629;50.860;5.714;2023-07-28T20:13:56;257.60;;;243.20;;
24457;SDS011;12629;50.860;5.714;2023-07-28T20:16:23;449.17;;;415.58;;
24457;SDS011;12629;50.860;5.714;2023-07-28T20:18:51;182.65;;;172.73;;
24457;SDS011;12629;50.860;5.714;2023-07-28T20:21:21;185.88;;;175.82;;
24457;SDS011;12629;50.860;5.714;2023-07-28T20:23:48;197.85;;;187.32;;
24457;SDS011;12629;50.860;5.714;2023-07-28T20:26:15;186.20;;;175.65;;
24457;SDS011;12629;50.860;5.714;2023-07-28T20:28:43;297.20;;;280.35;;
24457;SDS011;12629;50.860;5.714;2023-07-28T20:31:10;207.10;;;196.00;;
24457;SDS011;12629;50.860;5.714;2023-07-28T20:33:37;725.85;;;663.10;;
24457;SDS011;12629;50.860;5.714;2023-07-28T20:36:05;305.60;;;287.70;;
24457;SDS011;12629;50.860;5.714;2023-07-28T20:38:34;188.88;;;178.57;;
24457;SDS011;12629;50.860;5.714;2023-07-28T20:41:01;202.95;;;191.25;;
24457;SDS011;12629;50.860;5.714;2023-07-28T20:43:28;176.25;;;166.77;;
24457;SDS011;12629;50.860;5.714;2023-07-28T20:45:56;238.55;;;225.50;;
24457;SDS011;12629;50.860;5.714;2023-07-28T20:48:24;201.95;;;191.20;;
24457;SDS011;12629;50.860;5.714;2023-07-28T20:50:51;214.88;;;203.50;;
24457;SDS011;12629;50.860;5.714;2023-07-28T20:53:19;195.90;;;185.25;;
24457;SDS011;12629;50.860;5.714;2023-07-28T20:55:49;167.05;;;158.30;;
24457;SDS011;12629;50.860;5.714;2023-07-28T20:58:17;212.30;;;201.00;;
24457;SDS011;12629;50.860;5.714;2023-07-28T21:00:44;232.10;;;220.05;;
24457;SDS011;12629;50.860;5.714;2023-07-28T21:03:11;377.05;;;355.17;;
24457;SDS011;12629;50.860;5.714;2023-07-28T21:05:39;697.63;;;642.20;;
24457;SDS011;12629;50.860;5.714;2023-07-28T21:08:06;391.08;;;368.35;;
24457;SDS011;12629;50.860;5.714;2023-07-28T21:10:33;233.85;;;221.45;;
24457;SDS011;12629;50.860;5.714;2023-07-28T21:13:03;259.38;;;245.35;;
24457;SDS011;12629;50.860;5.714;2023-07-28T21:15:31;258.75;;;244.80;;
24457;SDS011;12629;50.860;5.714;2023-07-28T21:17:59;260.60;;;246.77;;
24457;SDS011;12629;50.860;5.714;2023-07-28T21:20:27;301.70;;;285.25;;
24457;SDS011;12629;50.860;5.714;2023-07-28T21:22:54;251.82;;;238.48;;
24457;SDS011;12629;50.860;5.714;2023-07-28T21:25:21;226.32;;;214.32;;
24457;SDS011;12629;50.860;5.714;2023-07-28T21:27:48;339.25;;;319.13;;
24457;SDS011;12629;50.860;5.714;2023-07-28T21:30:17;314.05;;;296.60;;
24457;SDS011;12629;50.860;5.714;2023-07-28T21:32:45;340.80;;;322.55;;
24457;SDS011;12629;50.860;5.714;2023-07-28T21:35:12;321.95;;;304.33;;
24457;SDS011;12629;50.860;5.714;2023-07-28T21:37:39;284.42;;;268.65;;
24457;SDS011;12629;50.860;5.714;2023-07-28T21:40:07;246.77;;;233.85;;
24457;SDS011;12629;50.860;5.714;2023-07-28T21:42:35;303.23;;;287.23;;
24457;SDS011;12629;50.860;5.714;2023-07-28T21:45:02;333.77;;;315.20;;
24457;SDS011;12629;50.860;5.714;2023-07-28T21:47:31;402.05;;;379.08;;
24457;SDS011;12629;50.860;5.714;2023-07-28T21:49:58;513.63;;;480.15;;
24457;SDS011;12629;50.860;5.714;2023-07-28T21:52:26;252.20;;;238.55;;
24457;SDS011;12629;50.860;5.714;2023-07-28T21:54:53;460.00;;;429.90;;
24457;SDS011;12629;50.860;5.714;2023-07-28T21:57:20;380.67;;;359.92;;
24457;SDS011;12629;50.860;5.714;2023-07-28T21:59:48;449.73;;;424.00;;
24457;SDS011;12629;50.860;5.714;2023-07-28T22:02:15;303.13;;;286.92;;
24457;SDS011;12629;50.860;5.714;2023-07-28T22:04:44;239.15;;;226.55;;
24457;SDS011;12629;50.860;5.714;2023-07-28T22:07:11;227.20;;;215.23;;
24457;SDS011;12629;50.860;5.714;2023-07-28T22:09:40;231.98;;;219.55;;
24457;SDS011;12629;50.860;5.714;2023-07-28T22:12:07;232.52;;;220.13;;
24457;SDS011;12629;50.860;5.714;2023-07-28T22:14:34;240.05;;;227.27;;
24457;SDS011;12629;50.860;5.714;2023-07-28T22:17:02;240.43;;;227.60;;
24457;SDS011;12629;50.860;5.714;2023-07-28T22:19:29;236.43;;;223.93;;
24457;SDS011;12629;50.860;5.714;2023-07-28T22:21:57;280.60;;;265.83;;
24457;SDS011;12629;50.860;5.714;2023-07-28T22:24:25;272.08;;;257.80;;
24457;SDS011;12629;50.860;5.714;2023-07-28T22:26:52;280.50;;;265.77;;
24457;SDS011;12629;50.860;5.714;2023-07-28T22:29:20;268.25;;;254.05;;
24457;SDS011;12629;50.860;5.714;2023-07-28T22:31:47;235.13;;;222.48;;
24457;SDS011;12629;50.860;5.714;2023-07-28T22:34:14;311.35;;;294.45;;
24457;SDS011;12629;50.860;5.714;2023-07-28T22:36:41;251.18;;;237.85;;
24457;SDS011;12629;50.860;5.714;2023-07-28T22:39:10;237.75;;;225.07;;
24457;SDS011;12629;50.860;5.714;2023-07-28T22:41:38;277.33;;;262.60;;
24457;SDS011;12629;50.860;5.714;2023-07-28T22:44:05;249.85;;;236.60;;
24457;SDS011;12629;50.860;5.714;2023-07-28T22:46:32;260.67;;;247.15;;
24457;SDS011;12629;50.860;5.714;2023-07-28T22:49:00;260.58;;;246.80;;
24457;SDS011;12629;50.860;5.714;2023-07-28T22:51:27;286.65;;;271.25;;
24457;SDS011;12629;50.860;5.714;2023-07-28T22:53:54;294.90;;;279.38;;
24457;SDS011;12629;50.860;5.714;2023-07-28T22:56:23;299.00;;;283.13;;
24457;SDS011;12629;50.860;5.714;2023-07-28T22:58:50;323.30;;;306.20;;
24457;SDS011;12629;50.860;5.714;2023-07-28T23:01:18;356.67;;;337.75;;
24457;SDS011;12629;50.860;5.714;2023-07-28T23:03:45;554.20;;;519.20;;
24457;SDS011;12629;50.860;5.714;2023-07-28T23:06:12;442.40;;;417.73;;
24457;SDS011;12629;50.860;5.714;2023-07-28T23:08:39;434.70;;;410.75;;
24457;SDS011;12629;50.860;5.714;2023-07-28T23:11:07;381.65;;;361.48;;
24457;SDS011;12629;50.860;5.714;2023-07-28T23:13:35;681.47;;;634.35;;
24457;SDS011;12629;50.860;5.714;2023-07-28T23:16:03;689.83;;;640.72;;
24457;SDS011;12629;50.860;5.714;2023-07-28T23:18:30;451.88;;;425.95;;
24457;SDS011;12629;50.860;5.714;2023-07-28T23:20:57;383.58;;;362.88;;
24457;SDS011;12629;50.860;5.714;2023-07-28T23:23:25;329.25;;;311.65;;
24457;SDS011;12629;50.860;5.714;2023-07-28T23:25:52;370.48;;;350.75;;
24457;SDS011;12629;50.860;5.714;2023-07-28T23:28:19;417.75;;;394.80;;
24457;SDS011;12629;50.860;5.714;2023-07-28T23:30:48;449.40;;;423.38;;
24457;SDS011;12629;50.860;5.714;2023-07-28T23:33:15;428.83;;;404.35;;
24457;SDS011;12629;50.860;5.714;2023-07-28T23:35:42;658.10;;;610.45;;
24457;SDS011;12629;50.860;5.714;2023-07-28T23:38:09;439.60;;;413.70;;
24457;SDS011;12629;50.860;5.714;2023-07-28T23:40:37;331.90;;;314.40;;
24457;SDS011;12629;50.860;5.714;2023-07-28T23:43:04;387.67;;;366.92;;
24457;SDS011;12629;50.860;5.714;2023-07-28T23:45:31;400.67;;;378.27;;
24457;SDS011;12629;50.860;5.714;2023-07-28T23:48:00;336.85;;;318.92;;
24457;SDS011;12629;50.860;5.714;2023-07-28T23:50:27;340.08;;;322.48;;
24457;SDS011;12629;50.860;5.714;2023-07-28T23:52:55;412.70;;;390.33;;
24457;SDS011;12629;50.860;5.714;2023-07-28T23:55:22;582.00;;;543.80;;
24457;SDS011;12629;50.860;5.714;2023-07-28T23:57:49;348.15;;;329.33;;
